createdAt,value
2023-05-29T00:01:34.190Z,14.10
2023-05-29T00:04:01.026Z,14.82
2023-05-29T00:06:27.937Z,15.02
2023-05-29T00:08:54.676Z,15.85
2023-05-29T00:11:21.582Z,15.63
2023-05-29T00:13:48.327Z,16.63
2023-05-29T00:16:15.012Z,14.68
2023-05-29T00:18:46.718Z,14.02
2023-05-29T00:21:15.153Z,13.75
2023-05-29T00:23:42.209Z,13.73
2023-05-29T00:26:09.072Z,14.75
2023-05-29T00:28:37.347Z,13.80
2023-05-29T00:31:04.133Z,12.95
2023-05-29T00:33:33.297Z,13.40
2023-05-29T00:36:00.148Z,12.55
2023-05-29T00:38:26.850Z,13.55
2023-05-29T00:40:53.678Z,14.48
2023-05-29T00:43:20.406Z,12.90
2023-05-29T00:45:47.294Z,13.85
2023-05-29T00:48:14.169Z,13.60
2023-05-29T00:50:41.900Z,12.85
2023-05-29T00:53:09.346Z,13.93
2023-05-29T00:55:36.983Z,17.83
2023-05-29T00:58:03.855Z,14.23
2023-05-29T01:00:31.909Z,12.25
2023-05-29T01:02:59.703Z,15.63
2023-05-29T01:05:26.603Z,15.07
2023-05-29T01:07:53.278Z,12.80
2023-05-29T01:10:20.176Z,13.90
2023-05-29T01:13:12.751Z,13.77
2023-05-29T01:15:59.662Z,14.45
2023-05-29T01:18:41.206Z,13.40
2023-05-29T01:21:15.572Z,13.13
2023-05-29T01:23:54.109Z,14.73
2023-05-29T01:26:41.387Z,15.65
2023-05-29T01:29:08.919Z,15.45
2023-05-29T01:31:38.148Z,13.15
2023-05-29T01:34:04.788Z,14.43
2023-05-29T01:36:33.924Z,14.45
2023-05-29T01:39:01.753Z,15.20
2023-05-29T01:41:30.415Z,12.77
2023-05-29T01:43:59.440Z,14.65
2023-05-29T01:46:27.037Z,13.45
2023-05-29T01:48:55.379Z,16.90
2023-05-29T01:51:22.518Z,13.25
2023-05-29T01:53:49.374Z,14.50
2023-05-29T01:56:16.489Z,15.20
2023-05-29T01:58:44.528Z,15.50
2023-05-29T02:01:11.856Z,16.35
2023-05-29T02:03:38.565Z,13.73
2023-05-29T02:06:05.378Z,14.93
2023-05-29T02:08:32.052Z,14.38
2023-05-29T02:10:58.776Z,14.95
2023-05-29T02:13:25.562Z,15.27
2023-05-29T02:15:52.203Z,15.05
2023-05-29T02:18:18.902Z,14.27
2023-05-29T02:20:46.151Z,12.95
2023-05-29T02:23:13.195Z,15.65
2023-05-29T02:25:40.216Z,16.95
2023-05-29T02:28:07.027Z,14.85
2023-05-29T02:30:34.400Z,13.32
2023-05-29T02:33:02.387Z,13.77
2023-05-29T02:35:29.323Z,13.13
2023-05-29T02:37:56.100Z,13.90
2023-05-29T02:40:22.949Z,14.35
2023-05-29T02:42:49.640Z,13.23
2023-05-29T02:45:16.320Z,14.73
2023-05-29T02:47:43.026Z,13.30
2023-05-29T02:50:10.293Z,16.73
2023-05-29T02:52:41.024Z,13.60
2023-05-29T02:55:08.035Z,15.77
2023-05-29T02:57:34.677Z,13.88
2023-05-29T03:00:02.018Z,14.93
2023-05-29T03:02:28.918Z,14.68
2023-05-29T03:04:55.782Z,15.50
2023-05-29T03:07:22.748Z,12.35
2023-05-29T03:09:49.371Z,14.68
2023-05-29T03:12:16.188Z,16.67
2023-05-29T03:14:42.862Z,15.35
2023-05-29T03:17:09.487Z,12.82
2023-05-29T03:19:36.137Z,15.13
2023-05-29T03:22:02.760Z,14.10
2023-05-29T03:24:29.520Z,13.05
2023-05-29T03:26:57.374Z,13.32
2023-05-29T03:29:24.118Z,13.40
2023-05-29T03:31:51.038Z,13.80
2023-05-29T03:34:17.945Z,14.32
2023-05-29T03:36:44.885Z,12.75
2023-05-29T03:39:11.520Z,16.10
2023-05-29T03:41:38.223Z,13.50
2023-05-29T03:44:05.142Z,15.50
2023-05-29T03:46:33.094Z,15.82
2023-05-29T03:48:59.884Z,16.47
2023-05-29T03:51:26.661Z,15.90
2023-05-29T03:53:53.300Z,15.40
2023-05-29T03:56:20.101Z,13.98
2023-05-29T03:58:46.829Z,16.33
2023-05-29T04:01:13.541Z,13.45
2023-05-29T04:03:40.600Z,13.25
2023-05-29T04:06:07.970Z,15.57
2023-05-29T04:08:34.652Z,14.35
2023-05-29T04:11:02.561Z,12.88
2023-05-29T04:13:29.318Z,14.85
2023-05-29T04:15:56.344Z,14.30
2023-05-29T04:18:23.331Z,12.45
2023-05-29T04:20:50.169Z,15.23
2023-05-29T04:23:16.995Z,15.80
2023-05-29T04:25:45.168Z,14.18
2023-05-29T04:28:11.934Z,13.82
2023-05-29T04:30:40.363Z,18.00
2023-05-29T04:33:07.174Z,16.50
2023-05-29T04:35:33.914Z,15.77
2023-05-29T04:38:00.608Z,15.23
2023-05-29T04:40:27.797Z,18.30
2023-05-29T04:42:54.522Z,13.75
2023-05-29T04:45:22.287Z,14.88
2023-05-29T04:47:49.330Z,17.30
2023-05-29T04:50:17.812Z,17.15
2023-05-29T04:52:45.351Z,16.00
2023-05-29T04:55:12.999Z,14.85
2023-05-29T04:57:39.757Z,19.10
2023-05-29T05:00:08.368Z,19.42
2023-05-29T05:02:35.299Z,15.95
2023-05-29T05:05:02.049Z,17.23
2023-05-29T05:07:28.658Z,17.30
2023-05-29T05:09:55.275Z,17.05
2023-05-29T05:12:22.032Z,18.55
2023-05-29T05:14:48.845Z,20.85
2023-05-29T05:17:15.605Z,17.60
2023-05-29T05:19:42.259Z,17.38
2023-05-29T05:22:08.899Z,18.70
2023-05-29T05:24:36.265Z,15.55
2023-05-29T05:27:02.934Z,15.82
2023-05-29T05:29:29.597Z,14.93
2023-05-29T05:31:56.298Z,17.35
2023-05-29T05:34:23.294Z,17.27
2023-05-29T05:36:50.723Z,17.33
2023-05-29T05:39:17.435Z,16.75
2023-05-29T05:41:44.254Z,18.20
2023-05-29T05:44:11.067Z,15.95
2023-05-29T05:46:37.894Z,18.08
2023-05-29T05:49:04.795Z,19.52
2023-05-29T05:51:32.176Z,17.58
2023-05-29T05:53:58.954Z,17.42
2023-05-29T05:56:27.361Z,15.05
2023-05-29T05:58:54.095Z,15.55
2023-05-29T06:01:21.419Z,17.30
2023-05-29T06:03:48.200Z,15.00
2023-05-29T06:06:15.349Z,16.52
2023-05-29T06:08:42.922Z,19.25
2023-05-29T06:11:10.060Z,18.05
2023-05-29T06:13:36.814Z,17.52
2023-05-29T06:16:03.728Z,16.45
2023-05-29T06:18:30.432Z,16.90
2023-05-29T06:20:58.021Z,16.08
2023-05-29T06:23:25.170Z,17.45
2023-05-29T06:25:52.405Z,15.52
2023-05-29T06:28:19.046Z,16.92
2023-05-29T06:30:46.640Z,17.15
2023-05-29T06:33:13.796Z,15.98
2023-05-29T06:35:41.013Z,16.15
2023-05-29T06:38:07.735Z,16.52
2023-05-29T06:40:34.393Z,16.42
2023-05-29T06:43:01.837Z,16.88
2023-05-29T06:45:28.536Z,17.35
2023-05-29T06:47:56.584Z,16.98
2023-05-29T06:50:23.946Z,15.82
2023-05-29T06:52:50.689Z,15.95
2023-05-29T06:55:17.972Z,16.40
2023-05-29T06:57:44.619Z,15.73
2023-05-29T07:00:12.374Z,16.95
2023-05-29T07:02:39.386Z,18.48
2023-05-29T07:05:06.390Z,15.27
2023-05-29T07:07:33.165Z,16.75
2023-05-29T07:09:59.858Z,15.90
2023-05-29T07:12:26.487Z,19.33
2023-05-29T07:14:53.114Z,14.93
2023-05-29T07:17:20.150Z,17.67
2023-05-29T07:19:47.933Z,17.42
2023-05-29T07:22:14.611Z,18.90
2023-05-29T07:24:41.998Z,16.00
2023-05-29T07:27:08.665Z,16.65
2023-05-29T07:29:35.475Z,19.15
2023-05-29T07:32:02.147Z,17.63
2023-05-29T07:34:28.864Z,16.08
2023-05-29T07:37:06.196Z,15.45
2023-05-29T07:39:34.329Z,14.25
2023-05-29T07:42:04.192Z,15.88
2023-05-29T07:44:31.284Z,14.60
2023-05-29T07:46:58.013Z,15.27
2023-05-29T07:49:24.740Z,17.10
2023-05-29T07:51:51.735Z,15.55
2023-05-29T07:54:19.591Z,17.00
2023-05-29T07:56:46.981Z,15.80
2023-05-29T07:59:13.926Z,16.00
2023-05-29T08:01:42.745Z,14.65
2023-05-29T08:04:09.523Z,14.35
2023-05-29T08:06:36.250Z,17.08
2023-05-29T08:09:03.469Z,14.27
2023-05-29T08:11:30.511Z,15.75
2023-05-29T08:13:57.189Z,17.48
2023-05-29T08:16:24.321Z,18.60
2023-05-29T08:18:51.166Z,15.15
2023-05-29T08:21:17.850Z,17.10
2023-05-29T08:23:44.503Z,14.02
2023-05-29T08:26:11.349Z,17.95
2023-05-29T08:28:39.623Z,15.05
2023-05-29T08:31:07.718Z,14.43
2023-05-29T08:33:34.484Z,15.18
2023-05-29T08:36:01.360Z,14.73
2023-05-29T08:38:28.078Z,15.38
2023-05-29T08:40:57.659Z,16.15
2023-05-29T08:43:25.228Z,17.85
2023-05-29T08:45:56.078Z,15.88
2023-05-29T08:48:26.597Z,16.95
2023-05-29T08:50:56.333Z,17.38
2023-05-29T08:53:24.968Z,17.25
2023-05-29T08:55:53.896Z,15.02
2023-05-29T08:58:25.056Z,17.10
2023-05-29T09:03:40.081Z,16.92
2023-05-29T09:06:08.414Z,15.35
2023-05-29T09:08:36.252Z,15.65
2023-05-29T09:11:02.948Z,17.13
2023-05-29T09:13:29.749Z,17.27
2023-05-29T09:16:00.889Z,17.08
2023-05-29T09:18:32.457Z,14.00
2023-05-29T09:21:02.760Z,17.73
2023-05-29T09:23:30.216Z,12.50
2023-05-29T09:25:57.067Z,15.45
2023-05-29T09:28:25.085Z,15.25
2023-05-29T09:30:51.883Z,16.75
2023-05-29T09:33:18.893Z,16.90
2023-05-29T09:35:48.177Z,15.73
2023-05-29T09:40:49.205Z,13.50
2023-05-29T09:43:21.314Z,14.43
2023-05-29T09:45:51.667Z,15.93
2023-05-29T09:48:28.292Z,14.45
2023-05-29T09:50:56.678Z,15.70
2023-05-29T09:53:27.132Z,15.73
2023-05-29T09:55:59.209Z,13.63
2023-05-29T09:58:26.752Z,15.65
2023-05-29T10:00:54.668Z,14.45
2023-05-29T10:03:23.149Z,15.52
2023-05-29T10:06:05.573Z,14.75
2023-05-29T10:08:37.611Z,14.55
2023-05-29T10:11:05.531Z,13.70
2023-05-29T10:13:42.577Z,14.40
2023-05-29T10:16:11.840Z,14.35
2023-05-29T10:18:41.113Z,15.55
2023-05-29T10:23:39.274Z,13.68
2023-05-29T10:26:16.775Z,14.35
2023-05-29T10:28:51.253Z,11.48
2023-05-29T10:31:24.700Z,13.50
2023-05-29T10:34:10.942Z,13.40
2023-05-29T10:36:46.690Z,13.32
2023-05-29T10:39:13.746Z,13.15
2023-05-29T10:41:43.495Z,14.77
2023-05-29T10:44:36.419Z,15.82
2023-05-29T10:47:05.726Z,15.07
2023-05-29T10:49:32.919Z,13.48
2023-05-29T10:52:01.203Z,13.80
2023-05-29T10:54:28.260Z,13.50
2023-05-29T10:57:02.436Z,14.73
2023-05-29T10:59:30.271Z,12.00
2023-05-29T11:01:58.883Z,13.97
2023-05-29T11:04:29.533Z,12.70
2023-05-29T11:06:56.526Z,12.18
2023-05-29T11:09:41.185Z,13.07
2023-05-29T11:12:37.473Z,12.52
2023-05-29T11:15:12.042Z,13.27
2023-05-29T11:17:38.781Z,13.02
2023-05-29T11:20:11.276Z,12.20
2023-05-29T11:22:43.904Z,14.75
2023-05-29T11:25:11.124Z,13.82
2023-05-29T11:27:38.562Z,11.20
2023-05-29T11:30:06.973Z,13.05
2023-05-29T11:32:37.344Z,11.43
2023-05-29T11:35:12.706Z,12.05
2023-05-29T11:37:41.121Z,11.93
2023-05-29T11:40:10.340Z,14.15
2023-05-29T11:42:37.360Z,14.32
2023-05-29T11:45:23.044Z,12.85
2023-05-29T11:48:00.761Z,11.75
2023-05-29T11:50:32.181Z,12.38
2023-05-29T11:52:59.837Z,12.18
2023-05-29T11:55:27.643Z,13.23
2023-05-29T11:58:02.110Z,12.10
2023-05-29T12:00:33.871Z,12.93
2023-05-29T12:03:06.767Z,10.30
2023-05-29T12:05:44.823Z,11.40
2023-05-29T12:08:11.569Z,12.15
2023-05-29T12:10:38.758Z,12.48
2023-05-29T12:13:08.771Z,12.57
2023-05-29T12:15:36.559Z,11.95
2023-05-29T12:18:04.160Z,13.80
2023-05-29T12:20:31.574Z,11.10
2023-05-29T12:23:03.157Z,12.15
2023-05-29T12:25:30.236Z,11.30
2023-05-29T12:27:59.265Z,12.02
2023-05-29T12:30:32.854Z,12.70
2023-05-29T12:33:02.205Z,13.30
2023-05-29T12:35:30.939Z,12.02
2023-05-29T12:38:00.124Z,13.73
2023-05-29T12:40:31.737Z,10.98
2023-05-29T12:43:00.680Z,12.85
2023-05-29T12:45:31.832Z,13.70
2023-05-29T12:48:04.569Z,10.35
2023-05-29T12:50:41.886Z,16.08
2023-05-29T12:53:13.765Z,13.18
2023-05-29T12:55:42.542Z,10.98
2023-05-29T12:58:10.588Z,11.90
2023-05-29T13:00:39.700Z,12.43
2023-05-29T13:03:07.530Z,14.02
2023-05-29T13:05:35.004Z,12.40
2023-05-29T13:08:02.415Z,13.10
2023-05-29T13:10:29.492Z,12.95
2023-05-29T13:12:56.628Z,12.65
2023-05-29T13:15:24.366Z,11.93
2023-05-29T13:17:51.958Z,10.83
2023-05-29T13:20:19.065Z,11.57
2023-05-29T13:22:49.039Z,12.45
2023-05-29T13:25:17.870Z,12.73
2023-05-29T13:27:46.770Z,12.18
2023-05-29T13:30:14.498Z,11.40
2023-05-29T13:32:42.420Z,13.33
2023-05-29T13:35:09.746Z,12.77
2023-05-29T13:37:40.524Z,11.75
2023-05-29T13:40:10.723Z,12.07
2023-05-29T13:42:39.453Z,11.77
2023-05-29T13:45:08.469Z,11.07
2023-05-29T13:47:36.658Z,11.43
2023-05-29T13:50:03.899Z,11.73
2023-05-29T13:52:30.748Z,10.65
2023-05-29T13:55:00.648Z,11.13
2023-05-29T13:57:27.364Z,11.35
2023-05-29T13:59:54.005Z,10.63
2023-05-29T14:02:20.767Z,10.43
2023-05-29T14:04:47.370Z,12.02
2023-05-29T14:07:14.087Z,10.88
2023-05-29T14:09:41.041Z,12.23
2023-05-29T14:12:08.145Z,11.10
2023-05-29T14:14:36.024Z,12.75
2023-05-29T14:17:02.706Z,11.80
2023-05-29T14:19:29.496Z,10.75
2023-05-29T14:21:56.445Z,10.65
2023-05-29T14:24:23.351Z,11.30
2023-05-29T14:26:50.472Z,11.90
2023-05-29T14:29:17.269Z,11.77
2023-05-29T14:31:45.204Z,11.20
2023-05-29T14:34:13.294Z,11.02
2023-05-29T14:36:41.126Z,11.73
2023-05-29T14:39:08.334Z,12.63
2023-05-29T14:41:36.533Z,11.23
2023-05-29T14:44:04.078Z,11.63
2023-05-29T14:46:33.440Z,10.98
2023-05-29T14:49:01.253Z,10.27
2023-05-29T14:51:28.812Z,10.25
2023-05-29T14:53:56.055Z,10.40
2023-05-29T14:56:23.243Z,11.27
2023-05-29T14:58:50.092Z,11.15
2023-05-29T15:01:20.913Z,11.52
2023-05-29T15:03:47.738Z,12.38
2023-05-29T15:06:14.669Z,11.27
2023-05-29T15:08:44.684Z,10.77
2023-05-29T15:11:13.999Z,10.63
2023-05-29T15:13:41.475Z,8.75
2023-05-29T15:16:08.813Z,11.57
2023-05-29T15:18:35.941Z,11.38
2023-05-29T15:21:03.174Z,11.88
2023-05-29T15:23:30.013Z,10.55
2023-05-29T15:25:56.909Z,10.82
2023-05-29T15:28:23.845Z,11.43
2023-05-29T15:30:50.570Z,10.27
2023-05-29T15:33:17.471Z,11.75
2023-05-29T15:35:44.299Z,10.93
2023-05-29T15:38:13.756Z,10.07
2023-05-29T15:40:42.008Z,10.52
2023-05-29T15:43:09.943Z,10.23
2023-05-29T15:45:40.013Z,10.40
2023-05-29T15:48:07.156Z,9.60
2023-05-29T15:50:34.033Z,11.77
2023-05-29T15:53:00.741Z,11.93
2023-05-29T15:55:27.864Z,10.43
2023-05-29T15:57:54.925Z,10.48
2023-05-29T16:00:21.949Z,12.20
2023-05-29T16:02:48.984Z,11.27
2023-05-29T16:05:15.919Z,12.07
2023-05-29T16:07:46.811Z,11.25
2023-05-29T16:10:13.446Z,10.80
2023-05-29T16:12:40.144Z,10.65
2023-05-29T16:15:07.645Z,10.93
2023-05-29T16:17:34.468Z,12.05
2023-05-29T16:20:01.354Z,11.98
2023-05-29T16:24:57.690Z,11.65
2023-05-29T16:27:24.314Z,11.70
2023-05-29T16:29:51.016Z,11.60
2023-05-29T16:32:17.707Z,10.48
2023-05-29T16:34:45.118Z,11.75
2023-05-29T16:37:11.988Z,10.07
2023-05-29T16:39:39.766Z,11.07
2023-05-29T16:42:06.964Z,10.93
2023-05-29T16:44:34.087Z,13.55
2023-05-29T16:47:01.350Z,10.25
2023-05-29T16:49:28.301Z,10.93
2023-05-29T16:51:55.014Z,11.57
2023-05-29T16:54:21.755Z,10.27
2023-05-29T16:56:48.424Z,11.23
2023-05-29T16:59:15.185Z,10.45
2023-05-29T17:01:41.983Z,11.45
2023-05-29T17:04:11.879Z,11.30
2023-05-29T17:06:38.864Z,12.52
2023-05-29T17:09:06.091Z,10.88
2023-05-29T17:11:32.782Z,11.65
2023-05-29T17:13:59.469Z,11.05
2023-05-29T17:16:26.322Z,10.50
2023-05-29T17:18:53.045Z,10.80
2023-05-29T17:21:19.876Z,10.60
2023-05-29T17:23:46.726Z,10.90
2023-05-29T17:26:13.764Z,9.80
2023-05-29T17:28:43.059Z,10.52
2023-05-29T17:31:10.149Z,9.55
2023-05-29T17:33:36.809Z,10.30
2023-05-29T17:36:03.571Z,13.43
2023-05-29T17:38:30.485Z,11.43
2023-05-29T17:40:57.303Z,12.65
2023-05-29T17:43:24.248Z,11.45
2023-05-29T17:45:53.588Z,10.18
2023-05-29T17:48:21.227Z,12.05
2023-05-29T17:50:47.925Z,11.88
2023-05-29T17:53:14.999Z,10.13
2023-05-29T17:55:41.737Z,9.27
2023-05-29T17:58:08.995Z,10.50
2023-05-29T18:00:37.724Z,11.45
2023-05-29T18:03:06.004Z,11.10
2023-05-29T18:05:34.074Z,12.35
2023-05-29T18:08:01.098Z,10.85
2023-05-29T18:10:28.059Z,11.68
2023-05-29T18:12:54.776Z,12.77
2023-05-29T18:15:23.834Z,11.88
2023-05-29T18:17:50.599Z,11.10
2023-05-29T18:20:17.957Z,13.07
2023-05-29T18:22:44.701Z,12.07
2023-05-29T18:25:12.518Z,10.38
2023-05-29T18:27:39.351Z,11.32
2023-05-29T18:30:06.809Z,12.07
2023-05-29T18:32:37.619Z,10.02
2023-05-29T18:35:04.889Z,15.40
2023-05-29T18:37:31.732Z,14.25
2023-05-29T18:39:58.383Z,12.82
2023-05-29T18:42:25.514Z,11.55
2023-05-29T18:44:52.568Z,13.07
2023-05-29T18:47:19.247Z,10.55
2023-05-29T18:49:46.150Z,12.02
2023-05-29T18:52:12.963Z,11.15
2023-05-29T18:54:39.599Z,10.90
2023-05-29T18:57:08.853Z,14.60
2023-05-29T18:59:35.668Z,16.45
2023-05-29T19:02:02.465Z,13.80
2023-05-29T19:04:31.789Z,12.02
2023-05-29T19:06:58.831Z,10.63
2023-05-29T19:09:25.930Z,11.13
2023-05-29T19:11:52.638Z,11.25
2023-05-29T19:14:19.433Z,11.75
2023-05-29T19:16:46.308Z,11.35
2023-05-29T19:19:12.975Z,10.98
2023-05-29T19:21:40.856Z,10.52
2023-05-29T19:24:07.650Z,12.38
2023-05-29T19:26:35.773Z,13.13
2023-05-29T19:29:02.827Z,11.43
2023-05-29T19:31:29.883Z,17.52
2023-05-29T19:33:57.186Z,12.70
2023-05-29T19:36:25.312Z,11.65
2023-05-29T19:38:52.754Z,11.82
2023-05-29T19:41:20.508Z,11.10
2023-05-29T19:43:47.375Z,11.50
2023-05-29T19:46:14.152Z,12.27
2023-05-29T19:48:41.099Z,12.15
2023-05-29T19:51:08.400Z,11.43
2023-05-29T19:53:35.606Z,12.32
2023-05-29T19:56:02.367Z,12.68
2023-05-29T19:58:29.105Z,11.52
2023-05-29T20:00:57.342Z,13.15
2023-05-29T20:03:24.419Z,11.57
2023-05-29T20:05:51.275Z,11.75
2023-05-29T20:08:18.250Z,14.68
2023-05-29T20:10:47.911Z,12.32
2023-05-29T20:13:18.955Z,12.35
2023-05-29T20:15:45.655Z,13.07
2023-05-29T20:18:12.429Z,12.07
2023-05-29T20:20:39.189Z,13.35
2023-05-29T20:23:05.869Z,13.70
2023-05-29T20:25:32.588Z,12.23
2023-05-29T20:27:59.343Z,13.00
2023-05-29T20:30:26.156Z,14.35
2023-05-29T20:32:52.800Z,12.88
2023-05-29T20:35:22.330Z,13.07
2023-05-29T20:37:52.904Z,12.85
2023-05-29T20:40:21.158Z,15.00
2023-05-29T20:42:48.256Z,12.90
2023-05-29T20:45:16.026Z,12.63
2023-05-29T20:47:45.494Z,15.93
2023-05-29T20:50:12.667Z,15.25
2023-05-29T20:52:39.595Z,14.68
2023-05-29T20:55:06.841Z,13.38
2023-05-29T20:57:33.662Z,13.18
2023-05-29T21:00:00.571Z,14.48
2023-05-29T21:02:27.354Z,14.00
2023-05-29T21:04:54.117Z,16.40
2023-05-29T21:07:20.785Z,12.32
2023-05-29T21:09:47.533Z,13.63
2023-05-29T21:12:14.221Z,14.50
2023-05-29T21:14:41.331Z,13.07
2023-05-29T21:17:08.231Z,15.23
2023-05-29T21:19:34.943Z,13.18
2023-05-29T21:22:02.292Z,12.52
2023-05-29T21:24:29.199Z,14.02
2023-05-29T21:26:56.171Z,13.38
2023-05-29T21:29:22.856Z,15.50
2023-05-29T21:31:50.227Z,14.85
2023-05-29T21:34:20.032Z,13.50
2023-05-29T21:36:48.467Z,13.50
2023-05-29T21:39:16.378Z,14.85
2023-05-29T21:41:44.512Z,14.80
2023-05-29T21:44:11.151Z,13.85
2023-05-29T21:46:38.200Z,12.55
2023-05-29T21:49:04.886Z,14.40
2023-05-29T21:51:34.232Z,16.13
2023-05-29T21:54:00.985Z,12.80
2023-05-29T21:56:30.829Z,14.32
2023-05-29T21:58:57.610Z,15.02
2023-05-29T22:01:24.355Z,15.70
2023-05-29T22:03:53.625Z,18.33
2023-05-29T22:06:20.271Z,16.38
2023-05-29T22:08:48.418Z,14.43
2023-05-29T22:11:15.162Z,13.18
2023-05-29T22:13:42.078Z,12.68
2023-05-29T22:16:09.076Z,14.25
2023-05-29T22:18:38.105Z,12.23
2023-05-29T22:21:06.642Z,12.93
2023-05-29T22:23:33.309Z,13.20
2023-05-29T22:26:02.965Z,14.80
2023-05-29T22:28:30.255Z,13.52
2023-05-29T22:30:58.270Z,15.18
2023-05-29T22:33:25.280Z,14.13
2023-05-29T22:35:51.932Z,12.10
2023-05-29T22:38:19.524Z,12.77
2023-05-29T22:40:46.420Z,13.20
2023-05-29T22:43:13.605Z,12.40
2023-05-29T22:45:40.321Z,15.23
2023-05-29T22:48:07.092Z,15.05
2023-05-29T22:50:34.621Z,13.70
2023-05-29T22:53:01.876Z,13.63
2023-05-29T22:55:28.880Z,13.43
2023-05-29T22:57:56.768Z,14.00
2023-05-29T23:00:25.209Z,14.17
2023-05-29T23:02:52.002Z,15.02
2023-05-29T23:05:19.583Z,13.02
2023-05-29T23:07:46.400Z,13.52
2023-05-29T23:10:13.832Z,13.95
2023-05-29T23:12:40.611Z,16.15
2023-05-29T23:15:08.149Z,14.80
2023-05-29T23:17:34.885Z,14.00
2023-05-29T23:20:01.983Z,14.60
2023-05-29T23:22:28.839Z,15.50
2023-05-29T23:24:55.497Z,16.75
2023-05-29T23:27:22.173Z,15.95
2023-05-29T23:29:49.133Z,15.32
2023-05-29T23:32:16.589Z,15.82
2023-05-29T23:34:43.806Z,15.90
2023-05-29T23:37:10.716Z,17.08
2023-05-29T23:39:37.478Z,16.42
2023-05-29T23:42:04.663Z,16.60
2023-05-29T23:44:32.648Z,15.23
2023-05-29T23:46:59.273Z,14.75
2023-05-29T23:49:28.986Z,16.55
2023-05-29T23:51:59.190Z,16.48
2023-05-29T23:54:25.958Z,15.27
2023-05-29T23:56:52.791Z,16.65
2023-05-29T23:59:19.638Z,18.15
